Time;durP1;ratioP1;P1;durP2;ratioP2;P2;SDS_P1;SDS_P2;PMS_P1;PMS_P2;Temp;Humidity;BMP_temperature;BMP_pressure;BME280_temperature;BME280_humidity;BME280_pressure;Samples;Min_cycle;Max_cycle;Signal;HPM_P1;HPM_P2
2023/06/21 00:04:13;;;;;;;19.58;16.33;;;22.50;99.90;;;;;;10351737;28;20266;-84
2023/06/21 00:09:16;;;;;;;21.83;18.98;;;22.40;99.90;;;;;;10325558;28;20247;-84
2023/06/21 00:14:18;;;;;;;19.80;16.13;;;22.10;99.90;;;;;;10270923;28;20257;-85
2023/06/21 00:19:21;;;;;;;23.00;20.55;;;22.40;99.90;;;;;;10315072;28;20246;-84
2023/06/21 00:24:23;;;;;;;22.95;20.30;;;22.00;99.90;;;;;;10331858;28;20209;-84
2023/06/21 00:29:26;;;;;;;23.95;19.58;;;22.10;99.90;;;;;;10311237;28;20236;-84
2023/06/21 00:34:30;;;;;;;10.80;9.80;;;22.10;99.90;;;;;;10309180;28;20256;-83
2023/06/21 00:39:32;;;;;;;22.50;19.83;;;21.80;99.90;;;;;;10332770;28;20208;-84
2023/06/21 00:44:35;;;;;;;21.20;18.60;;;21.80;99.90;;;;;;10350771;28;20602;-84
2023/06/21 00:49:38;;;;;;;23.45;20.75;;;21.70;99.90;;;;;;10368505;28;20298;-84
2023/06/21 00:54:41;;;;;;;19.30;17.25;;;21.60;99.90;;;;;;10322682;28;20256;-84
2023/06/21 00:59:44;;;;;;;16.90;14.60;;;21.60;99.90;;;;;;10341686;28;20256;-84
2023/06/21 01:04:49;;;;;;;22.42;18.08;;;21.60;99.90;;;;;;10350163;28;20212;-84
2023/06/21 01:10:13;;;;;;;19.55;17.10;;;21.50;99.90;;;;;;10330544;28;20295;-84
2023/06/21 01:15:26;;;;;;;19.75;15.10;;;21.40;99.90;;;;;;10330396;28;20263;-84
2023/06/21 01:20:33;;;;;;;20.73;18.50;;;21.40;99.90;;;;;;10345233;28;20575;-84
2023/06/21 01:25:50;;;;;;;15.27;13.38;;;21.40;99.90;;;;;;10310823;28;20585;-84
2023/06/21 01:30:57;;;;;;;17.02;14.38;;;21.50;99.90;;;;;;10320566;28;20239;-84
2023/06/21 01:36:04;;;;;;;10.50;9.48;;;21.60;99.90;;;;;;10343461;28;20263;-84
2023/06/21 01:41:10;;;;;;;13.02;11.50;;;21.80;99.90;;;;;;10337385;28;20277;-84
2023/06/21 01:46:14;;;;;;;11.98;10.80;;;21.80;99.90;;;;;;10315063;28;20244;-84
2023/06/21 01:51:18;;;;;;;10.98;9.77;;;21.90;99.90;;;;;;10314810;28;20367;-84
2023/06/21 01:56:23;;;;;;;10.23;9.25;;;21.90;99.50;;;;;;10344246;28;20244;-85
2023/06/21 02:01:27;;;;;;;12.55;11.30;;;22.00;98.90;;;;;;10361677;28;20321;-85
2023/06/21 02:06:33;;;;;;;7.63;6.90;;;22.10;99.30;;;;;;10314823;28;20240;-84
2023/06/21 02:11:36;;;;;;;11.95;10.57;;;22.10;98.70;;;;;;10331212;28;20291;-84
2023/06/21 02:16:39;;;;;;;11.40;10.20;;;22.10;98.50;;;;;;10330084;28;20204;-85
2023/06/21 02:21:41;;;;;;;8.95;8.10;;;22.10;99.00;;;;;;10332162;28;20615;-84
2023/06/21 02:26:44;;;;;;;6.10;5.60;;;22.10;98.60;;;;;;10346350;28;20280;-84
2023/06/21 02:31:47;;;;;;;13.02;11.63;;;22.10;98.50;;;;;;10322510;28;20240;-84
2023/06/21 02:36:53;;;;;;;10.68;9.65;;;22.00;99.50;;;;;;10339627;28;20311;-84
2023/06/21 02:41:56;;;;;;;12.52;10.50;;;22.00;99.30;;;;;;10320593;28;20239;-85
2023/06/21 02:46:59;;;;;;;12.63;11.02;;;21.90;99.90;;;;;;10353474;28;20298;-84
2023/06/21 02:52:03;;;;;;;7.70;7.00;;;21.90;99.90;;;;;;10334579;28;20283;-84
2023/06/21 02:57:06;;;;;;;9.82;8.80;;;21.80;99.50;;;;;;10312643;28;20307;-84
2023/06/21 03:02:09;;;;;;;11.73;10.48;;;21.80;99.90;;;;;;10345107;28;20292;-83
2023/06/21 03:07:12;;;;;;;11.98;10.70;;;21.60;99.90;;;;;;10329949;28;20248;-84
2023/06/21 03:12:14;;;;;;;12.02;9.93;;;21.60;99.90;;;;;;10311607;28;20318;-84
2023/06/21 03:17:17;;;;;;;11.02;10.00;;;21.50;99.90;;;;;;10329536;28;20647;-84
2023/06/21 03:22:20;;;;;;;13.70;10.80;;;21.60;99.90;;;;;;10312387;28;20236;-84
2023/06/21 03:27:22;;;;;;;9.40;8.50;;;21.70;99.90;;;;;;10310882;28;20248;-85
2023/06/21 03:32:25;;;;;;;11.35;10.23;;;21.70;99.90;;;;;;10336784;28;20256;-85
2023/06/21 03:37:28;;;;;;;12.68;11.27;;;21.70;99.90;;;;;;10352082;28;20212;-84
2023/06/21 03:42:30;;;;;;;10.45;9.43;;;21.70;99.90;;;;;;10336709;28;20263;-84
2023/06/21 03:47:36;;;;;;;5.50;5.00;;;21.60;99.90;;;;;;10351756;28;20270;-84
2023/06/21 03:52:39;;;;;;;8.23;7.45;;;21.70;99.90;;;;;;10348696;28;20662;-84
2023/06/21 03:57:42;;;;;;;13.80;10.88;;;21.90;99.90;;;;;;10309755;28;20637;-84
2023/06/21 04:02:44;;;;;;;11.05;9.88;;;22.00;99.90;;;;;;10309234;28;20272;-84
2023/06/21 04:07:47;;;;;;;10.40;9.43;;;22.00;99.90;;;;;;10326389;28;20644;-84
2023/06/21 04:12:50;;;;;;;8.75;7.95;;;22.00;99.90;;;;;;10285498;28;20672;-84
2023/06/21 04:17:53;;;;;;;8.80;7.57;;;22.10;99.90;;;;;;10325856;28;20299;-85
2023/06/21 04:22:57;;;;;;;9.13;8.25;;;22.30;99.40;;;;;;10334434;28;20716;-84
2023/06/21 04:28:00;;;;;;;8.35;7.57;;;22.40;98.50;;;;;;10347253;28;20251;-84
2023/06/21 04:33:04;;;;;;;13.10;10.57;;;22.50;98.30;;;;;;10309096;28;20323;-83
2023/06/21 04:38:06;;;;;;;13.73;11.90;;;22.40;99.90;;;;;;10312510;28;20239;-85
2023/06/21 04:43:10;;;;;;;10.63;9.52;;;22.50;99.90;;;;;;10364396;28;20274;-85
2023/06/21 04:48:13;;;;;;;12.65;11.35;;;22.50;99.60;;;;;;10366310;28;20244;-85
2023/06/21 04:53:15;;;;;;;15.10;11.18;;;22.70;99.90;;;;;;10329329;28;20307;-84
2023/06/21 04:58:18;;;;;;;12.75;11.35;;;22.90;99.40;;;;;;10304236;28;20295;-84
2023/06/21 05:03:20;;;;;;;12.73;10.13;;;23.10;99.40;;;;;;10327307;28;21010;-84
2023/06/21 05:08:23;;;;;;;10.13;9.13;;;23.20;98.40;;;;;;10332578;28;20240;-84
2023/06/21 05:13:26;;;;;;;9.88;8.88;;;23.50;97.80;;;;;;10311424;28;20260;-84
2023/06/21 05:18:29;;;;;;;10.55;9.55;;;23.80;96.40;;;;;;10301922;28;20643;-84
2023/06/21 05:23:33;;;;;;;12.65;9.38;;;24.20;95.20;;;;;;10297578;28;20777;-84
2023/06/21 05:28:36;;;;;;;8.65;7.82;;;24.50;93.60;;;;;;10316704;28;20631;-85
2023/06/21 05:33:38;;;;;;;10.13;8.63;;;24.70;92.00;;;;;;10333381;28;20264;-85
2023/06/21 05:38:41;;;;;;;20.42;11.40;;;24.60;91.80;;;;;;10320636;28;20351;-86
2023/06/21 05:43:43;;;;;;;18.77;10.45;;;24.40;94.30;;;;;;10342573;28;20244;-86
2023/06/21 05:48:46;;;;;;;9.98;8.32;;;23.80;97.70;;;;;;10314677;28;20714;-85
2023/06/21 05:53:48;;;;;;;11.82;5.72;;;23.40;98.10;;;;;;10351600;28;20325;-85
2023/06/21 05:58:51;;;;;;;9.40;8.50;;;22.90;99.90;;;;;;10345743;28;20248;-87
2023/06/21 06:03:54;;;;;;;14.95;5.90;;;22.60;99.90;;;;;;10323543;28;20322;-87
2023/06/21 06:08:56;;;;;;;13.38;8.95;;;22.40;99.90;;;;;;10326140;28;20306;-86
2023/06/21 06:13:59;;;;;;;10.30;9.30;;;22.10;99.90;;;;;;10337139;28;20335;-85
2023/06/21 06:19:01;;;;;;;9.93;8.25;;;22.10;99.90;;;;;;10324864;28;20241;-85
2023/06/21 06:24:04;;;;;;;10.23;9.10;;;22.10;99.90;;;;;;10343617;28;20307;-83
2023/06/21 06:29:07;;;;;;;8.52;7.20;;;21.90;99.90;;;;;;10327079;28;20249;-84
2023/06/21 06:34:09;;;;;;;9.23;8.18;;;21.90;99.90;;;;;;10329538;28;20718;-85
2023/06/21 06:39:13;;;;;;;7.75;6.82;;;22.00;99.90;;;;;;10360429;28;20302;-84
2023/06/21 06:44:15;;;;;;;10.15;8.35;;;22.40;99.90;;;;;;10364676;28;20646;-84
2023/06/21 06:49:18;;;;;;;8.77;7.88;;;22.70;99.90;;;;;;10288845;28;20272;-86
2023/06/21 06:54:20;;;;;;;11.77;8.50;;;23.00;99.90;;;;;;10308662;28;20332;-85
2023/06/21 06:59:23;;;;;;;9.10;8.05;;;23.20;99.90;;;;;;10343733;28;20782;-85
2023/06/21 07:04:31;;;;;;;10.40;8.10;;;23.40;99.90;;;;;;10291333;28;20237;-84
2023/06/21 07:09:34;;;;;;;9.38;8.38;;;23.40;99.90;;;;;;10331536;28;20647;-86
2023/06/21 07:14:37;;;;;;;11.60;10.48;;;23.40;99.90;;;;;;10330994;28;20774;-87
2023/06/21 07:19:41;;;;;;;9.00;8.07;;;23.50;99.90;;;;;;10355399;28;20644;-86
2023/06/21 07:24:43;;;;;;;10.73;9.48;;;23.50;99.90;;;;;;10352689;28;20268;-85
2023/06/21 07:29:46;;;;;;;11.32;10.23;;;23.60;99.90;;;;;;10313319;28;20656;-85
2023/06/21 07:34:48;;;;;;;9.60;8.70;;;23.70;99.90;;;;;;10359070;28;20718;-84
2023/06/21 07:39:51;;;;;;;16.08;12.52;;;23.60;99.40;;;;;;10319938;28;20665;-84
2023/06/21 07:44:57;;;;;;;12.25;10.98;;;23.50;99.90;;;;;;10348395;28;20263;-83
2023/06/21 07:50:00;;;;;;;17.08;13.90;;;23.40;99.90;;;;;;10366916;28;20640;-84
2023/06/21 07:55:22;;;;;;;17.50;15.65;;;23.40;99.90;;;;;;10367503;28;20388;-84
2023/06/21 08:00:24;;;;;;;19.38;17.02;;;23.20;99.90;;;;;;10337334;28;20294;-84
2023/06/21 08:05:27;;;;;;;20.60;16.23;;;22.90;99.90;;;;;;10293408;28;20373;-84
2023/06/21 08:10:33;;;;;;;23.35;18.38;;;22.80;99.90;;;;;;10283603;28;20692;-85
2023/06/21 08:15:36;;;;;;;17.30;13.95;;;22.70;99.90;;;;;;10291728;28;20269;-85
2023/06/21 08:20:40;;;;;;;14.73;12.68;;;22.70;99.90;;;;;;10292877;28;20272;-84
2023/06/21 08:25:45;;;;;;;15.38;13.77;;;22.70;99.90;;;;;;10325587;28;20252;-84
2023/06/21 08:30:48;;;;;;;15.95;12.30;;;22.60;99.90;;;;;;10307708;28;20244;-84
2023/06/21 08:35:50;;;;;;;16.70;13.50;;;22.80;99.90;;;;;;10303576;28;20323;-85
2023/06/21 08:40:57;;;;;;;14.05;12.15;;;23.00;99.90;;;;;;10328083;28;20263;-85
2023/06/21 08:46:03;;;;;;;12.60;11.40;;;23.30;99.90;;;;;;10359856;28;20236;-84
2023/06/21 08:51:10;;;;;;;19.83;13.85;;;23.70;99.90;;;;;;10348685;28;21065;-85
2023/06/21 08:56:22;;;;;;;18.10;13.90;;;23.80;99.90;;;;;;10364529;28;20271;-85
2023/06/21 09:01:28;;;;;;;17.45;13.20;;;23.80;99.90;;;;;;10342859;28;20311;-84
2023/06/21 09:06:31;;;;;;;15.50;13.07;;;23.70;99.90;;;;;;10315115;28;20240;-85
2023/06/21 09:11:36;;;;;;;21.40;13.48;;;23.60;99.90;;;;;;10324631;28;20310;-85
2023/06/21 09:16:39;;;;;;;16.10;12.43;;;23.50;99.90;;;;;;10335394;28;20664;-85
2023/06/21 09:21:43;;;;;;;16.88;12.30;;;23.20;99.90;;;;;;10318361;28;20233;-86
2023/06/21 09:26:45;;;;;;;12.23;10.05;;;23.00;99.90;;;;;;10323664;28;20302;-85
2023/06/21 09:31:48;;;;;;;14.02;12.60;;;22.90;99.90;;;;;;10305213;28;20240;-86
2023/06/21 09:36:53;;;;;;;14.73;13.15;;;22.90;99.90;;;;;;10284848;28;20802;-86
2023/06/21 09:41:55;;;;;;;17.77;12.40;;;23.00;99.90;;;;;;10294703;28;20264;-86
2023/06/21 09:47:02;;;;;;;18.27;12.88;;;22.90;99.90;;;;;;10321088;28;20659;-86
2023/06/21 09:52:05;;;;;;;21.77;14.20;;;23.00;99.90;;;;;;10368785;28;20306;-85
2023/06/21 09:57:08;;;;;;;24.52;13.45;;;23.00;99.90;;;;;;10334212;28;20296;-85
2023/06/21 10:02:11;;;;;;;17.58;13.55;;;23.10;99.90;;;;;;10317028;28;20300;-86
2023/06/21 10:07:14;;;;;;;16.75;14.35;;;23.20;99.90;;;;;;10304034;28;20245;-83
2023/06/21 10:12:17;;;;;;;13.70;11.95;;;23.50;99.90;;;;;;10290802;28;20702;-83
2023/06/21 10:17:20;;;;;;;15.02;13.45;;;23.80;99.90;;;;;;10295372;28;20676;-83
2023/06/21 10:22:24;;;;;;;14.75;12.55;;;24.00;99.90;;;;;;10311451;28;20229;-82
2023/06/21 10:27:26;;;;;;;13.73;11.07;;;24.20;99.90;;;;;;10272284;28;20711;-81
2023/06/21 10:32:33;;;;;;;12.25;10.93;;;24.30;99.90;;;;;;10271488;28;20639;-82
2023/06/21 10:37:48;;;;;;;13.25;11.15;;;24.60;99.90;;;;;;10317459;28;20264;-83
2023/06/21 10:42:53;;;;;;;12.77;11.40;;;24.80;99.90;;;;;;10314136;28;20249;-83
2023/06/21 10:47:56;;;;;;;10.05;9.02;;;25.00;99.90;;;;;;10272303;28;20655;-83
2023/06/21 10:53:01;;;;;;;13.30;10.73;;;25.20;99.90;;;;;;10299351;28;20283;-83
2023/06/21 10:58:04;;;;;;;12.68;11.32;;;25.40;99.90;;;;;;10313302;28;20269;-83
2023/06/21 11:03:12;;;;;;;12.07;10.85;;;25.50;99.90;;;;;;10360865;28;20264;-84
2023/06/21 11:08:16;;;;;;;12.73;11.07;;;25.60;99.90;;;;;;10369277;28;20306;-83
2023/06/21 11:13:37;;;;;;;13.73;12.15;;;25.80;99.60;;;;;;10349079;28;20248;-83
2023/06/21 11:18:47;;;;;;;18.27;14.40;;;25.80;99.80;;;;;;10330712;28;20237;-82
2023/06/21 11:23:51;;;;;;;17.63;14.02;;;25.90;99.90;;;;;;10355444;28;20235;-82
2023/06/21 11:28:55;;;;;;;17.30;12.93;;;26.20;99.90;;;;;;10367264;28;20232;-82
2023/06/21 11:33:59;;;;;;;18.10;14.80;;;26.30;99.90;;;;;;10367434;28;20236;-82
2023/06/21 11:39:05;;;;;;;16.20;14.50;;;26.40;99.90;;;;;;10342406;28;20761;-82
2023/06/21 11:44:20;;;;;;;24.27;13.15;;;26.40;99.90;;;;;;10333032;28;20248;-84
2023/06/21 11:49:31;;;;;;;14.82;11.45;;;26.50;99.90;;;;;;10306850;28;20248;-85
2023/06/21 11:54:35;;;;;;;13.38;11.80;;;26.60;99.90;;;;;;10312886;28;20264;-86
2023/06/21 11:59:38;;;;;;;19.77;14.88;;;26.70;99.90;;;;;;10320028;28;20368;-86
2023/06/21 12:04:43;;;;;;;24.02;18.20;;;26.80;99.90;;;;;;10323011;28;20240;-87
2023/06/21 12:09:50;;;;;;;22.83;18.17;;;26.90;99.90;;;;;;10326954;28;20290;-84
2023/06/21 12:14:57;;;;;;;16.58;12.50;;;27.10;99.90;;;;;;10323210;28;20801;-84
2023/06/21 12:20:05;;;;;;;14.00;12.45;;;27.30;99.90;;;;;;10331809;28;20251;-84
2023/06/21 12:25:07;;;;;;;13.57;9.95;;;27.30;99.90;;;;;;10320373;28;20269;-83
2023/06/21 12:30:11;;;;;;;16.13;12.35;;;27.50;99.90;;;;;;10325003;28;20248;-84
2023/06/21 12:35:17;;;;;;;13.45;12.05;;;27.50;99.90;;;;;;10316153;28;20282;-85
2023/06/21 12:40:20;;;;;;;15.80;12.45;;;27.70;99.90;;;;;;10319402;28;20291;-86
2023/06/21 12:45:24;;;;;;;18.02;13.73;;;27.90;97.40;;;;;;10341994;28;20252;-85
2023/06/21 12:50:26;;;;;;;14.00;12.45;;;27.90;97.40;;;;;;10336893;28;20237;-85
2023/06/21 12:55:29;;;;;;;14.23;12.70;;;28.00;97.50;;;;;;10327690;28;20260;-85
2023/06/21 13:00:32;;;;;;;13.05;10.23;;;28.10;96.70;;;;;;10333384;28;20260;-86
2023/06/21 13:05:35;;;;;;;15.82;11.88;;;28.20;96.80;;;;;;10343940;28;20269;-83
2023/06/21 13:10:37;;;;;;;21.95;16.52;;;28.20;96.20;;;;;;10321327;28;20698;-84
2023/06/21 13:15:40;;;;;;;13.95;12.35;;;28.50;96.00;;;;;;10324051;28;20637;-83
2023/06/21 13:20:42;;;;;;;16.42;14.73;;;28.50;95.70;;;;;;10307125;28;20249;-84
2023/06/21 13:25:45;;;;;;;16.90;13.55;;;28.60;94.30;;;;;;10314077;28;20281;-84
2023/06/21 13:30:50;;;;;;;16.73;13.75;;;28.80;94.20;;;;;;10315396;28;20248;-84
2023/06/21 13:35:53;;;;;;;14.30;12.68;;;28.80;93.40;;;;;;10332265;28;21032;-84
2023/06/21 13:40:56;;;;;;;14.38;11.63;;;28.50;93.80;;;;;;10332367;28;20271;-83
2023/06/21 13:45:59;;;;;;;14.43;12.90;;;28.30;94.30;;;;;;10331817;28;20627;-84
2023/06/21 13:51:01;;;;;;;17.27;14.10;;;28.10;94.80;;;;;;10331530;28;20719;-84
2023/06/21 13:56:04;;;;;;;21.15;17.05;;;27.80;95.10;;;;;;10347360;28;20673;-84
2023/06/21 14:01:07;;;;;;;26.73;18.45;;;27.60;96.80;;;;;;10313135;28;20269;-84
2023/06/21 14:06:09;;;;;;;21.67;16.38;;;26.80;99.90;;;;;;10345846;28;20236;-85
2023/06/21 14:11:12;;;;;;;35.30;20.23;;;25.50;99.90;;;;;;10326506;28;20311;-86
2023/06/21 14:16:15;;;;;;;21.45;15.48;;;24.30;99.90;;;;;;10330834;28;20724;-85
2023/06/21 14:21:18;;;;;;;13.80;12.40;;;23.90;99.90;;;;;;10312923;28;20244;-84
2023/06/21 14:26:20;;;;;;;17.02;13.30;;;23.70;99.90;;;;;;10370999;28;20229;-84
2023/06/21 14:31:23;;;;;;;18.63;13.77;;;23.70;99.90;;;;;;10353216;28;20295;-85
2023/06/21 14:36:26;;;;;;;14.18;12.90;;;23.80;99.90;;;;;;10330832;28;20261;-86
2023/06/21 14:41:29;;;;;;;14.20;12.70;;;23.90;99.90;;;;;;10330832;28;20240;-85
2023/06/21 14:46:32;;;;;;;12.57;11.43;;;24.00;99.90;;;;;;10330160;28;20662;-86
2023/06/21 14:51:34;;;;;;;13.25;11.57;;;24.00;99.90;;;;;;10331249;28;20240;-85
2023/06/21 14:56:37;;;;;;;13.45;11.57;;;24.10;99.90;;;;;;10328603;28;20682;-85
2023/06/21 15:01:40;;;;;;;11.15;9.85;;;24.30;99.90;;;;;;10327152;28;20661;-89
2023/06/21 15:06:43;;;;;;;13.23;11.90;;;24.40;99.90;;;;;;10310949;28;20241;-89
2023/06/21 15:11:45;;;;;;;14.93;11.90;;;24.50;99.90;;;;;;10329364;28;20291;-89
2023/06/21 15:16:49;;;;;;;13.57;10.82;;;24.70;99.90;;;;;;10329598;28;20257;-87
2023/06/21 15:21:52;;;;;;;12.82;11.13;;;24.90;99.90;;;;;;10331767;28;20267;-86
2023/06/21 15:26:55;;;;;;;17.98;16.08;;;25.00;99.90;;;;;;10330137;28;20249;-87
2023/06/21 15:31:57;;;;;;;10.55;9.55;;;25.30;99.90;;;;;;10329184;28;20240;-86
2023/06/21 15:37:00;;;;;;;18.27;15.85;;;25.40;99.90;;;;;;10328815;28;20264;-87
2023/06/21 15:42:03;;;;;;;19.40;15.70;;;25.50;99.90;;;;;;10328025;28;20636;-86
2023/06/21 15:47:05;;;;;;;15.55;14.05;;;25.80;99.90;;;;;;10327458;28;20256;-85
2023/06/21 15:52:09;;;;;;;13.50;12.10;;;25.90;99.90;;;;;;10353329;28;20236;-87
2023/06/21 15:57:12;;;;;;;17.95;12.93;;;26.10;99.90;;;;;;10345594;28;20279;-87
2023/06/21 16:02:16;;;;;;;17.92;15.40;;;26.20;99.90;;;;;;10324138;28;20292;-86
2023/06/21 16:07:20;;;;;;;23.20;16.05;;;26.20;99.90;;;;;;10336384;28;20281;-86
2023/06/21 16:12:23;;;;;;;14.68;13.20;;;26.30;99.90;;;;;;10330134;28;20271;-86
2023/06/21 16:17:25;;;;;;;20.05;16.73;;;26.30;99.90;;;;;;10326457;28;20275;-86
2023/06/21 16:22:28;;;;;;;20.95;18.60;;;26.20;99.90;;;;;;10309508;28;20679;-85
2023/06/21 16:27:31;;;;;;;22.67;20.27;;;26.10;99.90;;;;;;10309204;28;20287;-87
2023/06/21 16:32:33;;;;;;;14.70;13.30;;;25.80;99.90;;;;;;10326949;28;20312;-87
2023/06/21 16:37:37;;;;;;;13.15;10.75;;;25.40;99.90;;;;;;10334270;28;20298;-90
2023/06/21 16:42:40;;;;;;;14.02;11.13;;;25.00;99.90;;;;;;10341988;28;20244;-87
2023/06/21 16:47:43;;;;;;;15.40;10.80;;;25.00;99.90;;;;;;10292767;28;20212;-87
2023/06/21 16:52:46;;;;;;;15.35;11.63;;;24.20;99.90;;;;;;10327048;28;20762;-87
2023/06/21 16:57:48;;;;;;;11.48;10.27;;;23.40;99.90;;;;;;10308740;28;20268;-87
2023/06/21 17:02:52;;;;;;;12.27;10.27;;;23.20;99.90;;;;;;10326580;28;20296;-87
2023/06/21 17:07:56;;;;;;;10.80;9.10;;;23.00;99.90;;;;;;10308200;28;20698;-87
2023/06/21 17:12:59;;;;;;;10.98;9.45;;;23.00;99.90;;;;;;10325980;28;20248;-88
2023/06/21 17:18:02;;;;;;;12.95;9.25;;;22.90;99.90;;;;;;10325711;28;20264;-87
2023/06/21 17:23:05;;;;;;;15.98;9.40;;;22.90;99.90;;;;;;10326279;28;20245;-89
2023/06/21 17:28:08;;;;;;;10.15;9.00;;;22.90;99.90;;;;;;10326046;28;20291;-88
2023/06/21 17:33:10;;;;;;;9.95;7.80;;;23.10;99.90;;;;;;10308588;28;20240;-89
2023/06/21 17:38:14;;;;;;;11.10;9.18;;;23.20;99.90;;;;;;10327425;28;20307;-88
2023/06/21 17:43:18;;;;;;;10.63;9.55;;;23.20;99.90;;;;;;10326753;28;20232;-88
2023/06/21 17:48:20;;;;;;;8.45;7.65;;;23.20;99.90;;;;;;10326224;28;20625;-88
2023/06/21 17:53:24;;;;;;;9.45;8.43;;;23.30;99.90;;;;;;10326345;28;20653;-88
2023/06/21 17:58:27;;;;;;;9.02;7.15;;;23.20;99.90;;;;;;10308812;28;20253;-90
2023/06/21 18:03:30;;;;;;;7.82;7.13;;;23.20;99.90;;;;;;9965417;28;9999789;-86
2023/06/21 18:08:32;;;;;;;9.88;8.23;;;23.20;99.90;;;;;;10282813;28;20245;-85
2023/06/21 18:13:35;;;;;;;11.73;8.05;;;23.10;99.90;;;;;;10288885;28;20322;-87
2023/06/21 18:18:38;;;;;;;10.18;9.15;;;22.90;99.90;;;;;;10287052;28;20321;-85
2023/06/21 18:23:40;;;;;;;10.95;8.75;;;22.80;99.90;;;;;;10288744;28;20233;-85
2023/06/21 18:28:43;;;;;;;13.40;8.52;;;22.80;99.90;;;;;;10303844;28;20250;-85
2023/06/21 18:33:45;;;;;;;10.02;7.93;;;22.60;99.90;;;;;;10271567;28;20644;-86
2023/06/21 18:38:48;;;;;;;11.00;9.90;;;22.60;99.90;;;;;;10288058;28;20265;-86
2023/06/21 18:43:50;;;;;;;10.80;9.70;;;22.60;99.90;;;;;;10289287;28;20718;-86
2023/06/21 18:48:54;;;;;;;10.95;9.45;;;22.60;99.90;;;;;;10288497;28;20241;-86
2023/06/21 18:53:58;;;;;;;11.55;10.35;;;22.40;99.90;;;;;;10270401;28;20300;-85
2023/06/21 18:59:04;;;;;;;13.10;10.70;;;22.20;99.90;;;;;;10287520;28;20269;-86
2023/06/21 19:04:07;;;;;;;11.98;9.75;;;22.00;99.90;;;;;;10287420;28;20291;-86
2023/06/21 19:09:09;;;;;;;15.80;11.35;;;21.80;99.90;;;;;;10300560;28;20264;-86
2023/06/21 19:14:12;;;;;;;11.52;9.68;;;21.70;99.90;;;;;;10301768;28;20253;-87
2023/06/21 19:19:15;;;;;;;10.55;9.55;;;21.60;99.90;;;;;;10288913;28;20312;-87
2023/06/21 19:24:17;;;;;;;9.05;8.15;;;21.60;99.90;;;;;;10286040;28;20241;-87
2023/06/21 19:29:20;;;;;;;12.98;11.13;;;21.60;99.90;;;;;;10285887;28;20296;-86
2023/06/21 19:34:24;;;;;;;10.93;9.07;;;21.50;99.90;;;;;;10286902;28;20265;-87
2023/06/21 19:39:26;;;;;;;15.77;12.30;;;21.50;99.90;;;;;;10284551;28;20336;-86
2023/06/21 19:44:29;;;;;;;13.55;11.73;;;21.30;99.90;;;;;;10271336;28;20241;-87
2023/06/21 19:49:32;;;;;;;15.85;11.18;;;21.30;99.90;;;;;;10290506;28;20768;-88
2023/06/21 19:54:34;;;;;;;10.43;9.50;;;21.20;99.90;;;;;;10287247;28;20711;-87
2023/06/21 19:59:37;;;;;;;12.70;11.50;;;21.30;99.90;;;;;;10302122;28;20327;-89
2023/06/21 20:04:40;;;;;;;10.52;9.52;;;21.30;99.90;;;;;;10296683;28;20233;-87
2023/06/21 20:09:42;;;;;;;11.20;10.00;;;21.30;99.90;;;;;;10270773;28;20280;-86
2023/06/21 20:14:45;;;;;;;10.48;9.48;;;21.40;99.90;;;;;;10271058;28;20221;-86
2023/06/21 20:19:48;;;;;;;15.32;12.43;;;21.50;99.90;;;;;;10270456;28;20749;-88
2023/06/21 20:24:51;;;;;;;11.82;10.63;;;21.50;99.90;;;;;;10287078;28;20649;-87
2023/06/21 20:29:54;;;;;;;10.73;9.70;;;21.50;99.90;;;;;;10269582;28;20660;-86
2023/06/21 20:34:57;;;;;;;11.10;10.00;;;21.50;99.90;;;;;;10287316;28;20707;-87
2023/06/21 20:39:59;;;;;;;15.10;11.93;;;21.50;99.90;;;;;;10287362;28;20638;-88
2023/06/21 20:45:03;;;;;;;16.00;13.27;;;21.50;99.90;;;;;;10269984;28;20245;-87
2023/06/21 20:50:05;;;;;;;20.75;15.90;;;21.40;99.90;;;;;;10287037;28;20249;-87
2023/06/21 20:55:08;;;;;;;12.77;9.63;;;21.30;99.90;;;;;;10286249;28;20299;-87
2023/06/21 21:00:11;;;;;;;16.50;14.63;;;21.20;99.90;;;;;;10286199;28;20304;-86
2023/06/21 21:05:14;;;;;;;16.30;13.75;;;21.20;99.90;;;;;;10270076;28;20273;-86
2023/06/21 21:10:17;;;;;;;16.60;13.88;;;21.20;99.90;;;;;;10287033;28;20245;-87
2023/06/21 21:15:19;;;;;;;21.85;14.15;;;21.20;99.90;;;;;;10270218;28;20262;-86
2023/06/21 21:20:22;;;;;;;20.45;15.57;;;21.10;99.90;;;;;;10287079;28;20265;-86
2023/06/21 21:25:25;;;;;;;16.98;15.15;;;21.10;99.90;;;;;;10286349;28;20245;-87
2023/06/21 21:30:27;;;;;;;10.63;9.48;;;21.00;99.90;;;;;;10286115;28;20249;-86
2023/06/21 21:35:33;;;;;;;20.42;14.60;;;21.10;99.90;;;;;;10286368;28;20311;-86
2023/06/21 21:40:36;;;;;;;12.70;11.05;;;21.10;99.90;;;;;;10269025;28;20328;-86
2023/06/21 21:45:39;;;;;;;10.57;9.57;;;21.00;99.90;;;;;;10291018;28;20323;-86
2023/06/21 21:50:44;;;;;;;17.02;14.57;;;21.10;99.90;;;;;;10276779;28;20233;-86
2023/06/21 21:55:49;;;;;;;11.80;10.70;;;21.30;99.90;;;;;;10294205;28;20308;-86
2023/06/21 22:00:52;;;;;;;21.42;15.15;;;21.40;99.90;;;;;;10290226;28;20276;-87
2023/06/21 22:05:55;;;;;;;13.43;11.60;;;21.50;99.90;;;;;;10333815;28;20268;-86
2023/06/21 22:10:57;;;;;;;14.60;13.13;;;21.50;99.90;;;;;;10333225;28;20248;-86
2023/06/21 22:16:01;;;;;;;20.02;17.48;;;21.50;99.90;;;;;;10331927;28;20307;-86
2023/06/21 22:21:05;;;;;;;16.60;14.85;;;21.60;99.90;;;;;;10332567;28;20283;-86
2023/06/21 22:26:08;;;;;;;15.43;13.45;;;21.50;99.90;;;;;;10332820;28;20268;-86
2023/06/21 22:31:11;;;;;;;19.80;15.30;;;21.50;99.90;;;;;;10314415;28;20754;-87
2023/06/21 22:36:20;;;;;;;20.70;18.05;;;21.40;99.90;;;;;;10314534;28;20240;-86
2023/06/21 22:41:24;;;;;;;18.10;15.55;;;21.30;99.90;;;;;;10332083;28;20732;-86
2023/06/21 22:46:28;;;;;;;15.80;14.13;;;21.20;99.90;;;;;;10314696;28;20236;-86
2023/06/21 22:51:32;;;;;;;17.58;15.05;;;21.10;99.90;;;;;;10331529;28;20236;-86
2023/06/21 22:56:36;;;;;;;11.70;10.60;;;20.90;99.90;;;;;;10331512;28;20295;-86
2023/06/21 23:01:38;;;;;;;15.38;13.68;;;20.80;99.90;;;;;;10330667;28;20295;-86
2023/06/21 23:06:41;;;;;;;11.30;10.18;;;20.80;99.90;;;;;;10330627;28;20244;-87
2023/06/21 23:11:44;;;;;;;14.07;12.60;;;20.90;99.90;;;;;;10312983;28;20295;-86
2023/06/21 23:16:46;;;;;;;11.07;9.68;;;20.80;99.90;;;;;;10330764;28;20291;-86
2023/06/21 23:21:49;;;;;;;11.48;10.38;;;20.70;99.90;;;;;;10330541;28;20717;-86
2023/06/21 23:26:52;;;;;;;15.20;12.52;;;20.60;99.90;;;;;;10329360;28;20299;-86
2023/06/21 23:31:54;;;;;;;13.13;11.85;;;20.40;99.90;;;;;;10312790;28;20252;-87
2023/06/21 23:36:58;;;;;;;11.48;10.38;;;20.20;99.90;;;;;;10329950;28;20295;-86
2023/06/21 23:42:01;;;;;;;11.02;10.00;;;20.20;99.90;;;;;;10328749;28;20296;-86
2023/06/21 23:47:08;;;;;;;12.70;10.57;;;20.30;99.90;;;;;;10329698;28;20272;-86
2023/06/21 23:52:11;;;;;;;16.48;13.15;;;20.20;99.90;;;;;;10329568;28;20233;-86
2023/06/21 23:57:13;;;;;;;14.18;9.57;;;20.00;99.90;;;;;;10329377;28;20264;-86
